createdAt,value
2018-02-17T00:00:29.624Z,43.43
2018-02-17T00:02:57.358Z,40.53
2018-02-17T00:05:25.045Z,39.13
2018-02-17T00:07:52.632Z,38.80
2018-02-17T00:10:20.266Z,39.80
2018-02-17T00:12:47.859Z,38.00
2018-02-17T00:15:15.681Z,39.73
2018-02-17T00:17:43.274Z,43.50
2018-02-17T00:20:10.854Z,43.30
2018-02-17T00:22:38.427Z,42.37
2018-02-17T00:25:06.033Z,40.23
2018-02-17T00:27:33.808Z,40.70
2018-02-17T00:30:01.372Z,42.80
2018-02-17T00:32:28.991Z,41.80
2018-02-17T00:34:56.562Z,36.90
2018-02-17T00:37:24.156Z,39.27
2018-02-17T00:39:51.760Z,39.50
2018-02-17T00:42:19.378Z,38.67
2018-02-17T00:44:46.947Z,38.53
2018-02-17T00:47:14.556Z,39.70
2018-02-17T00:49:42.375Z,40.87
2018-02-17T00:52:10.006Z,38.00
2018-02-17T00:54:37.624Z,40.27
2018-02-17T00:57:05.341Z,40.63
2018-02-17T00:59:32.908Z,44.50
2018-02-17T01:02:00.513Z,46.30
2018-02-17T01:04:28.131Z,48.60
2018-02-17T01:06:55.688Z,44.73
2018-02-17T01:09:23.268Z,49.67
2018-02-17T01:11:50.912Z,44.60
2018-02-17T01:14:18.470Z,44.50
2018-02-17T01:16:46.080Z,44.67
2018-02-17T01:19:13.689Z,42.20
2018-02-17T01:21:41.481Z,42.03
2018-02-17T01:24:09.253Z,41.00
2018-02-17T01:26:36.824Z,38.93
2018-02-17T01:29:04.404Z,41.03
2018-02-17T01:31:32.024Z,39.13
2018-02-17T01:33:59.588Z,37.57
2018-02-17T01:36:27.165Z,39.10
2018-02-17T01:38:54.778Z,40.13
2018-02-17T01:41:22.484Z,38.70
2018-02-17T01:43:50.072Z,38.60
2018-02-17T01:46:17.796Z,36.03
2018-02-17T01:48:45.480Z,37.13
2018-02-17T01:51:13.043Z,39.83
2018-02-17T01:53:40.682Z,39.90
2018-02-17T01:56:08.253Z,48.33
2018-02-17T01:58:35.871Z,59.83
2018-02-17T02:01:03.478Z,44.90
2018-02-17T02:03:31.050Z,40.07
2018-02-17T02:05:58.677Z,42.93
2018-02-17T02:08:26.361Z,43.43
2018-02-17T02:10:53.926Z,46.63
2018-02-17T02:13:21.509Z,45.77
2018-02-17T02:15:49.124Z,39.27
2018-02-17T02:18:16.797Z,39.07
2018-02-17T02:20:44.368Z,40.50
2018-02-17T02:23:11.980Z,43.30
2018-02-17T02:25:39.545Z,40.20
2018-02-17T02:28:07.115Z,38.00
2018-02-17T02:30:34.731Z,43.83
2018-02-17T02:33:02.324Z,55.87
2018-02-17T02:35:29.915Z,46.00
2018-02-17T02:37:57.520Z,46.17
2018-02-17T02:40:25.158Z,43.10
2018-02-17T02:42:53.008Z,39.77
2018-02-17T02:45:20.636Z,41.10
2018-02-17T02:47:48.215Z,39.70
2018-02-17T02:50:16.087Z,38.80
2018-02-17T02:52:43.690Z,39.77
2018-02-17T02:55:11.248Z,39.70
2018-02-17T02:57:38.830Z,40.87
2018-02-17T03:00:06.423Z,37.60
2018-02-17T03:02:33.974Z,39.67
2018-02-17T03:05:01.552Z,38.17
2018-02-17T03:07:29.164Z,39.60
2018-02-17T03:09:56.733Z,41.87
2018-02-17T03:12:24.306Z,41.63
2018-02-17T03:14:51.933Z,39.97
2018-02-17T03:17:19.502Z,40.83
2018-02-17T03:19:47.322Z,37.13
2018-02-17T03:22:14.939Z,39.30
2018-02-17T03:24:42.642Z,37.40
2018-02-17T03:27:10.217Z,36.10
2018-02-17T03:29:37.837Z,36.93
2018-02-17T03:32:05.648Z,35.83
2018-02-17T03:34:33.220Z,34.10
2018-02-17T03:37:00.820Z,37.47
2018-02-17T03:39:28.366Z,35.47
2018-02-17T03:41:55.934Z,35.37
2018-02-17T03:44:23.535Z,34.90
2018-02-17T03:46:51.097Z,36.60
2018-02-17T03:49:18.667Z,37.03
2018-02-17T03:51:46.271Z,38.73
2018-02-17T03:54:13.850Z,37.57
2018-02-17T03:56:41.457Z,37.13
2018-02-17T03:59:09.060Z,34.73
2018-02-17T04:01:36.637Z,35.53
2018-02-17T04:04:04.212Z,37.00
2018-02-17T04:06:31.820Z,39.60
2018-02-17T04:08:59.541Z,33.27
2018-02-17T04:11:27.115Z,37.97
2018-02-17T04:13:54.746Z,39.10
2018-02-17T04:16:22.533Z,41.80
2018-02-17T04:18:50.103Z,36.83
2018-02-17T04:21:17.714Z,37.70
2018-02-17T04:23:45.303Z,43.10
2018-02-17T04:26:12.890Z,47.47
2018-02-17T04:28:40.475Z,41.43
2018-02-17T04:31:08.310Z,38.37
2018-02-17T04:33:35.892Z,35.60
2018-02-17T04:36:03.612Z,33.70
2018-02-17T04:38:31.238Z,36.67
2018-02-17T04:44:10.232Z,36.87
2018-02-17T04:46:43.644Z,38.07
2018-02-17T04:49:17.860Z,36.90
2018-02-17T04:51:50.868Z,36.07
2018-02-17T04:54:20.900Z,40.83
2018-02-17T04:56:48.517Z,39.33
2018-02-17T05:02:26.364Z,41.00
2018-02-17T05:04:54.614Z,41.23
2018-02-17T05:07:32.634Z,41.43
2018-02-17T05:10:00.276Z,38.00
2018-02-17T05:12:28.050Z,39.33
2018-02-17T05:14:58.231Z,42.33
2018-02-17T05:17:31.519Z,43.70
2018-02-17T05:20:02.986Z,38.23
2018-02-17T05:25:46.206Z,37.97
2018-02-17T05:28:13.922Z,37.90
2018-02-17T05:30:42.805Z,40.53
2018-02-17T05:33:20.352Z,42.23
2018-02-17T05:38:50.699Z,40.33
2018-02-17T05:44:36.976Z,38.33
2018-02-17T05:47:06.365Z,37.23
2018-02-17T05:49:33.975Z,35.00
2018-02-17T05:52:01.629Z,41.77
2018-02-17T05:54:29.348Z,41.83
2018-02-17T05:56:57.000Z,46.77
2018-02-17T05:59:24.599Z,45.87
2018-02-17T06:01:52.181Z,46.33
2018-02-17T06:04:19.839Z,43.87
2018-02-17T06:06:47.461Z,45.73
2018-02-17T06:09:15.038Z,44.07
2018-02-17T06:11:42.780Z,44.63
2018-02-17T06:14:10.424Z,40.63
2018-02-17T06:16:38.041Z,43.33
2018-02-17T06:19:05.754Z,41.20
2018-02-17T06:21:33.348Z,40.23
2018-02-17T06:24:01.098Z,41.43
2018-02-17T06:26:28.953Z,38.77
2018-02-17T06:28:56.549Z,40.57
2018-02-17T06:31:24.268Z,37.40
2018-02-17T06:33:51.852Z,47.87
2018-02-17T06:36:19.456Z,43.70
2018-02-17T06:38:47.036Z,40.40
2018-02-17T06:41:14.707Z,41.73
2018-02-17T06:43:42.378Z,45.50
2018-02-17T06:46:09.958Z,44.77
2018-02-17T06:48:37.711Z,45.40
2018-02-17T06:51:05.580Z,51.50
2018-02-17T06:53:33.154Z,43.23
2018-02-17T06:56:00.746Z,45.30
2018-02-17T06:58:28.361Z,49.10
2018-02-17T07:00:56.022Z,51.63
2018-02-17T07:03:23.680Z,46.80
2018-02-17T07:05:51.295Z,44.23
2018-02-17T07:08:18.872Z,48.50
2018-02-17T07:10:46.662Z,49.23
2018-02-17T07:13:14.316Z,38.50
2018-02-17T07:15:41.970Z,39.20
2018-02-17T07:18:09.555Z,38.77
2018-02-17T07:20:37.156Z,36.83
2018-02-17T07:23:04.726Z,33.63
2018-02-17T07:25:32.424Z,36.47
2018-02-17T07:28:00.103Z,32.80
2018-02-17T07:30:27.675Z,31.57
2018-02-17T07:32:55.426Z,30.70
2018-02-17T07:35:23.050Z,29.30
2018-02-17T07:37:50.739Z,29.93
2018-02-17T07:40:18.342Z,30.07
2018-02-17T07:42:45.972Z,29.80
2018-02-17T07:45:13.718Z,31.43
2018-02-17T07:47:41.399Z,27.50
2018-02-17T07:50:09.014Z,32.37
2018-02-17T07:52:36.721Z,36.10
2018-02-17T07:55:04.282Z,38.83
2018-02-17T07:57:32.057Z,37.63
2018-02-17T07:59:59.665Z,38.47
2018-02-17T08:02:27.222Z,36.70
2018-02-17T08:04:55.164Z,41.90
2018-02-17T08:07:22.766Z,41.83
2018-02-17T08:09:50.338Z,48.17
2018-02-17T08:12:17.955Z,48.73
2018-02-17T08:14:45.539Z,46.10
2018-02-17T08:17:13.108Z,42.83
2018-02-17T08:19:40.716Z,45.67
2018-02-17T08:22:08.670Z,54.47
2018-02-17T08:24:36.338Z,49.10
2018-02-17T08:27:03.960Z,59.97
2018-02-17T08:29:31.536Z,57.70
2018-02-17T08:31:59.306Z,68.67
2018-02-17T08:34:26.982Z,60.43
2018-02-17T08:36:54.645Z,62.80
2018-02-17T08:39:22.236Z,61.67
2018-02-17T08:41:49.848Z,59.40
2018-02-17T08:44:17.763Z,58.20
2018-02-17T08:46:45.493Z,56.73
2018-02-17T08:49:13.107Z,58.70
2018-02-17T08:51:40.698Z,56.30
2018-02-17T08:54:08.478Z,55.20
2018-02-17T08:56:36.348Z,53.70
2018-02-17T08:59:03.930Z,52.57
2018-02-17T09:01:31.528Z,53.63
2018-02-17T09:03:59.129Z,52.43
2018-02-17T09:06:26.699Z,52.37
2018-02-17T09:08:54.303Z,46.30
2018-02-17T09:11:21.955Z,34.10
2018-02-17T09:13:49.532Z,31.10
2018-02-17T09:16:17.112Z,32.30
2018-02-17T09:18:44.826Z,23.80
2018-02-17T09:21:12.569Z,19.10
2018-02-17T09:23:40.207Z,20.23
2018-02-17T09:26:07.807Z,18.90
2018-02-17T09:28:35.578Z,19.73
2018-02-17T09:31:03.192Z,18.83
2018-02-17T09:33:31.052Z,18.07
2018-02-17T09:35:58.627Z,16.03
2018-02-17T09:38:26.202Z,22.47
2018-02-17T09:40:53.834Z,20.03
2018-02-17T09:43:21.413Z,19.87
2018-02-17T09:45:49.188Z,13.03
2018-02-17T09:48:16.847Z,16.90
2018-02-17T09:50:44.440Z,19.00
2018-02-17T09:53:12.195Z,18.70
2018-02-17T09:55:39.824Z,15.60
2018-02-17T09:58:07.414Z,18.27
2018-02-17T10:00:35.152Z,18.57
2018-02-17T10:03:02.766Z,16.80
2018-02-17T10:05:30.470Z,15.20
2018-02-17T10:07:58.142Z,16.60
2018-02-17T10:10:25.766Z,15.00
2018-02-17T10:12:53.470Z,18.57
2018-02-17T10:15:21.034Z,19.60
2018-02-17T10:17:49.207Z,22.50
2018-02-17T10:20:18.211Z,19.27
2018-02-17T10:22:47.520Z,16.90
2018-02-17T10:25:16.452Z,18.67
2018-02-17T10:27:45.695Z,17.17
2018-02-17T10:30:13.359Z,19.70
2018-02-17T10:32:42.457Z,16.20
2018-02-17T10:35:10.104Z,17.13
2018-02-17T10:37:37.708Z,19.93
2018-02-17T10:40:05.340Z,17.03
2018-02-17T10:42:32.924Z,12.10
2018-02-17T10:45:00.507Z,12.60
2018-02-17T10:47:28.141Z,14.17
2018-02-17T10:49:55.710Z,12.90
2018-02-17T10:52:23.295Z,17.33
2018-02-17T10:54:50.904Z,14.20
2018-02-17T10:57:18.566Z,15.00
2018-02-17T10:59:46.212Z,16.30
2018-02-17T11:02:13.839Z,14.70
2018-02-17T11:04:41.550Z,16.00
2018-02-17T11:07:09.271Z,15.30
2018-02-17T11:09:37.063Z,18.17
2018-02-17T11:12:04.638Z,13.23
2018-02-17T11:17:16.609Z,15.97
2018-02-17T11:19:44.175Z,22.23
2018-02-17T11:22:11.774Z,19.00
2018-02-17T11:24:39.421Z,12.43
2018-02-17T11:27:07.022Z,13.00
2018-02-17T11:29:34.600Z,11.27
2018-02-17T11:32:02.172Z,12.73
2018-02-17T11:34:29.778Z,12.03
2018-02-17T11:36:57.354Z,13.90
2018-02-17T11:39:24.968Z,13.50
2018-02-17T11:44:44.610Z,14.33
2018-02-17T11:47:12.209Z,13.23
2018-02-17T11:49:57.139Z,15.90
2018-02-17T11:52:24.783Z,12.10
2018-02-17T11:54:52.370Z,25.63
2018-02-17T11:57:19.975Z,12.93
2018-02-17T11:59:47.623Z,14.80
2018-02-17T12:02:15.218Z,13.37
2018-02-17T12:04:42.817Z,14.90
2018-02-17T12:07:10.444Z,15.50
2018-02-17T12:09:38.029Z,11.73
2018-02-17T12:12:05.613Z,11.00
2018-02-17T12:14:33.284Z,12.27
2018-02-17T12:17:00.887Z,13.60
2018-02-17T12:19:28.560Z,14.43
2018-02-17T12:21:56.200Z,14.63
2018-02-17T12:24:23.787Z,12.33
2018-02-17T12:26:51.536Z,12.80
2018-02-17T12:29:19.248Z,11.83
2018-02-17T12:31:46.866Z,11.90
2018-02-17T12:34:14.456Z,12.00
2018-02-17T12:36:42.127Z,13.03
2018-02-17T12:39:09.699Z,11.23
2018-02-17T12:41:37.308Z,11.30
2018-02-17T12:44:04.945Z,11.40
2018-02-17T12:46:32.530Z,11.33
2018-02-17T12:49:00.114Z,11.20
2018-02-17T12:51:27.716Z,12.50
2018-02-17T12:53:55.389Z,10.17
2018-02-17T12:56:22.987Z,12.07
2018-02-17T12:58:50.580Z,11.10
2018-02-17T13:01:18.144Z,11.70
2018-02-17T13:03:45.736Z,10.27
2018-02-17T13:06:13.323Z,12.43
2018-02-17T13:08:41.044Z,11.73
2018-02-17T13:11:08.594Z,10.97
2018-02-17T13:13:36.199Z,11.93
2018-02-17T13:16:03.778Z,11.60
2018-02-17T13:18:31.333Z,11.10
2018-02-17T13:20:58.940Z,13.03
2018-02-17T13:23:26.505Z,13.40
2018-02-17T13:25:54.088Z,11.40
2018-02-17T13:28:25.715Z,9.87
2018-02-17T13:30:53.310Z,13.80
2018-02-17T13:33:20.986Z,11.67
2018-02-17T13:35:48.591Z,12.23
2018-02-17T13:38:16.151Z,15.23
2018-02-17T13:40:43.715Z,15.20
2018-02-17T13:43:11.442Z,12.63
2018-02-17T13:45:39.106Z,12.93
2018-02-17T13:48:06.754Z,11.57
2018-02-17T13:50:34.342Z,11.93
2018-02-17T13:53:01.923Z,10.70
2018-02-17T13:55:29.510Z,10.10
2018-02-17T13:57:57.110Z,9.77
2018-02-17T14:00:24.684Z,9.47
2018-02-17T14:02:52.251Z,11.13
2018-02-17T14:05:19.847Z,10.47
2018-02-17T14:07:47.405Z,10.00
2018-02-17T14:10:15.098Z,11.03
2018-02-17T14:12:42.732Z,11.50
2018-02-17T14:15:10.309Z,10.80
2018-02-17T14:17:38.017Z,10.73
2018-02-17T14:20:05.660Z,10.60
2018-02-17T14:22:33.230Z,10.30
2018-02-17T14:25:00.794Z,12.87
2018-02-17T14:27:28.444Z,11.50
2018-02-17T14:29:56.012Z,12.03
2018-02-17T14:32:23.641Z,13.63
2018-02-17T14:34:51.248Z,13.93
2018-02-17T14:37:18.818Z,13.10
2018-02-17T14:39:46.402Z,11.73
2018-02-17T14:42:14.010Z,11.07
2018-02-17T14:44:41.753Z,12.67
2018-02-17T14:47:09.317Z,11.53
2018-02-17T14:49:36.936Z,12.77
2018-02-17T14:52:04.740Z,13.70
2018-02-17T14:54:32.311Z,15.20
2018-02-17T14:56:59.923Z,12.33
2018-02-17T14:59:27.488Z,13.63
2018-02-17T15:01:55.185Z,14.13
2018-02-17T15:04:22.792Z,14.00
2018-02-17T15:06:50.400Z,13.53
2018-02-17T15:09:17.962Z,13.57
2018-02-17T15:11:45.632Z,15.00
2018-02-17T15:14:14.386Z,15.80
2018-02-17T15:16:41.944Z,14.70
2018-02-17T15:19:09.546Z,15.43
2018-02-17T15:21:37.116Z,17.30
2018-02-17T15:24:04.758Z,17.10
2018-02-17T15:26:32.444Z,19.97
2018-02-17T15:29:00.023Z,19.00
2018-02-17T15:31:27.599Z,20.00
2018-02-17T15:33:55.406Z,18.63
2018-02-17T15:36:23.089Z,18.50
2018-02-17T15:38:50.704Z,22.63
2018-02-17T15:41:18.511Z,21.13
2018-02-17T15:43:46.100Z,20.40
2018-02-17T15:46:13.655Z,21.17
2018-02-17T15:48:41.245Z,20.53
2018-02-17T15:51:08.830Z,26.63
2018-02-17T15:53:36.390Z,34.70
2018-02-17T15:56:04.326Z,31.13
2018-02-17T15:58:31.881Z,21.40
2018-02-17T16:00:59.448Z,22.60
2018-02-17T16:03:27.048Z,17.60
2018-02-17T16:05:54.645Z,21.57
2018-02-17T16:08:22.227Z,25.10
2018-02-17T16:10:49.893Z,24.40
2018-02-17T16:13:17.448Z,26.70
2018-02-17T16:15:45.015Z,26.20
2018-02-17T16:18:14.503Z,26.37
2018-02-17T16:20:44.226Z,24.60
2018-02-17T16:23:17.692Z,21.77
2018-02-17T16:25:45.345Z,25.67
2018-02-17T16:28:12.908Z,20.43
2018-02-17T16:30:40.500Z,27.40
2018-02-17T16:33:08.313Z,25.30
2018-02-17T16:35:35.887Z,22.93
2018-02-17T16:38:03.479Z,22.27
2018-02-17T16:40:31.109Z,22.80
2018-02-17T16:42:58.753Z,19.00
2018-02-17T16:45:26.347Z,24.73
2018-02-17T16:47:53.949Z,27.50
2018-02-17T16:50:21.605Z,27.07
2018-02-17T16:52:49.188Z,32.83
2018-02-17T16:55:16.817Z,39.27
2018-02-17T16:57:44.547Z,39.67
2018-02-17T17:00:12.098Z,23.83
2018-02-17T17:02:39.846Z,24.60
2018-02-17T17:05:07.430Z,24.97
2018-02-17T17:07:35.023Z,26.50
2018-02-17T17:10:02.844Z,30.90
2018-02-17T17:12:30.496Z,24.43
2018-02-17T17:14:58.188Z,25.00
2018-02-17T17:17:25.845Z,41.37
2018-02-17T17:19:53.407Z,31.87
2018-02-17T17:22:20.978Z,31.10
2018-02-17T17:24:48.625Z,39.73
2018-02-17T17:27:16.289Z,38.20
2018-02-17T17:29:43.844Z,36.40
2018-02-17T17:32:11.513Z,39.80
2018-02-17T17:34:39.272Z,29.80
2018-02-17T17:37:07.347Z,27.40
2018-02-17T17:39:35.202Z,27.00
2018-02-17T17:42:03.040Z,24.60
2018-02-17T17:44:30.988Z,26.07
2018-02-17T17:46:58.632Z,30.60
2018-02-17T17:49:26.274Z,37.70
2018-02-17T17:51:53.868Z,31.63
2018-02-17T17:54:21.592Z,26.53
2018-02-17T17:56:49.247Z,32.23
2018-02-17T17:59:16.919Z,34.20
2018-02-17T18:01:44.522Z,36.27
2018-02-17T18:04:12.183Z,29.97
2018-02-17T18:06:39.778Z,31.30
2018-02-17T18:09:07.474Z,27.57
2018-02-17T18:11:35.561Z,23.90
2018-02-17T18:14:03.158Z,26.27
2018-02-17T18:16:30.967Z,30.67
2018-02-17T18:18:58.539Z,33.90
2018-02-17T18:21:26.094Z,39.03
2018-02-17T18:23:53.688Z,25.17
2018-02-17T18:26:21.414Z,25.93
2018-02-17T18:28:49.045Z,25.60
2018-02-17T18:31:16.683Z,26.40
2018-02-17T18:33:44.383Z,28.50
2018-02-17T18:36:12.216Z,29.90
2018-02-17T18:38:39.831Z,30.07
2018-02-17T18:41:07.544Z,53.87
2018-02-17T18:43:35.103Z,47.00
2018-02-17T18:46:02.770Z,32.70
2018-02-17T18:48:30.349Z,33.20
2018-02-17T18:50:57.907Z,39.40
2018-02-17T18:53:25.509Z,28.20
2018-02-17T18:55:53.080Z,34.00
2018-02-17T18:58:20.681Z,29.20
2018-02-17T19:00:48.267Z,33.70
2018-02-17T19:03:15.839Z,26.70
2018-02-17T19:05:43.384Z,30.40
2018-02-17T19:08:11.056Z,28.50
2018-02-17T19:10:38.720Z,45.97
2018-02-17T19:13:06.381Z,33.83
2018-02-17T19:15:34.043Z,25.07
2018-02-17T19:18:01.603Z,27.87
2018-02-17T19:20:29.165Z,26.57
2018-02-17T19:22:56.784Z,28.33
2018-02-17T19:25:24.356Z,32.90
2018-02-17T19:27:51.948Z,32.80
2018-02-17T19:30:19.587Z,30.27
2018-02-17T19:32:47.457Z,33.27
2018-02-17T19:35:15.032Z,34.60
2018-02-17T19:37:42.643Z,34.97
2018-02-17T19:40:10.215Z,32.73
2018-02-17T19:42:37.763Z,53.90
2018-02-17T19:45:05.345Z,41.67
2018-02-17T19:47:32.903Z,37.33
2018-02-17T19:50:00.454Z,41.73
2018-02-17T19:52:28.054Z,37.20
2018-02-17T19:54:55.800Z,33.63
2018-02-17T19:57:23.347Z,31.57
2018-02-17T19:59:50.949Z,31.53
2018-02-17T20:02:18.511Z,35.40
2018-02-17T20:04:46.083Z,33.10
2018-02-17T20:07:13.678Z,29.33
2018-02-17T20:09:41.270Z,30.00
2018-02-17T20:12:08.834Z,33.67
2018-02-17T20:14:36.456Z,35.10
2018-02-17T20:17:04.036Z,33.80
2018-02-17T20:19:31.618Z,34.10
2018-02-17T20:21:59.232Z,36.60
2018-02-17T20:24:26.934Z,32.50
2018-02-17T20:26:54.510Z,38.33
2018-02-17T20:29:22.110Z,35.60
2018-02-17T20:31:49.687Z,35.33
2018-02-17T20:34:17.379Z,35.73
2018-02-17T20:36:45.062Z,32.60
2018-02-17T20:39:12.632Z,34.00
2018-02-17T20:41:40.199Z,32.53
2018-02-17T20:44:07.942Z,33.43
2018-02-17T20:46:35.710Z,33.47
2018-02-17T20:49:04.222Z,33.33
2018-02-17T20:51:31.819Z,38.60
2018-02-17T20:53:59.396Z,34.37
2018-02-17T20:56:26.968Z,35.97
2018-02-17T20:58:54.632Z,36.40
2018-02-17T21:01:22.211Z,35.57
2018-02-17T21:03:49.779Z,38.20
2018-02-17T21:06:17.392Z,54.13
2018-02-17T21:08:45.003Z,38.90
2018-02-17T21:11:12.591Z,39.77
2018-02-17T21:13:40.198Z,36.03
2018-02-17T21:16:07.870Z,35.07
2018-02-17T21:18:35.454Z,37.03
2018-02-17T21:21:03.065Z,35.80
2018-02-17T21:23:30.689Z,33.60
2018-02-17T21:25:58.273Z,37.67
2018-02-17T21:28:25.920Z,36.27
2018-02-17T21:30:53.541Z,32.20
2018-02-17T21:33:21.102Z,30.83
2018-02-17T21:35:50.173Z,32.07
2018-02-17T21:38:17.739Z,31.97
2018-02-17T21:40:45.365Z,31.00
2018-02-17T21:43:13.034Z,32.40
2018-02-17T21:45:40.593Z,33.73
2018-02-17T21:48:08.161Z,41.27
2018-02-17T21:50:35.788Z,34.27
2018-02-17T21:53:03.417Z,43.40
2018-02-17T21:55:30.996Z,37.93
2018-02-17T21:57:59.169Z,35.10
2018-02-17T22:00:26.850Z,51.73
2018-02-17T22:02:54.435Z,40.87
2018-02-17T22:05:22.042Z,37.73
2018-02-17T22:07:49.606Z,77.30
2018-02-17T22:10:17.154Z,38.70
2018-02-17T22:12:44.753Z,33.27
2018-02-17T22:15:12.320Z,32.53
2018-02-17T22:17:39.902Z,33.70
2018-02-17T22:20:07.514Z,36.77
2018-02-17T22:22:35.069Z,46.73
2018-02-17T22:25:02.631Z,55.93
2018-02-17T22:27:30.257Z,96.67
2018-02-17T22:29:57.812Z,60.70
2018-02-17T22:32:25.375Z,54.13
2018-02-17T22:34:52.994Z,58.87
2018-02-17T22:37:20.563Z,59.60
2018-02-17T22:39:48.150Z,67.73
2018-02-17T22:42:15.764Z,63.80
2018-02-17T22:44:43.354Z,74.50
2018-02-17T22:47:10.953Z,71.70
2018-02-17T22:49:38.593Z,71.80
2018-02-17T22:52:06.173Z,92.87
2018-02-17T22:54:33.760Z,82.20
2018-02-17T22:57:01.347Z,66.07
2018-02-17T22:59:28.913Z,57.10
2018-02-17T23:01:56.506Z,56.10
2018-02-17T23:04:24.125Z,54.80
2018-02-17T23:06:51.702Z,54.70
2018-02-17T23:09:19.284Z,49.80
2018-02-17T23:11:46.891Z,48.93
2018-02-17T23:14:14.478Z,47.93
2018-02-17T23:16:42.051Z,44.63
2018-02-17T23:19:09.653Z,51.23
2018-02-17T23:21:37.223Z,47.13
2018-02-17T23:24:04.780Z,49.23
2018-02-17T23:26:32.401Z,50.10
2018-02-17T23:28:59.980Z,48.57
2018-02-17T23:31:27.553Z,54.17
2018-02-17T23:33:55.138Z,47.53
2018-02-17T23:36:22.700Z,50.50
2018-02-17T23:38:50.265Z,53.33
2018-02-17T23:41:17.882Z,48.47
2018-02-17T23:43:45.464Z,51.83
2018-02-17T23:46:13.035Z,64.77
2018-02-17T23:48:40.647Z,57.57
2018-02-17T23:51:08.839Z,56.07
2018-02-17T23:53:36.421Z,50.40
2018-02-17T23:56:04.053Z,53.23
2018-02-17T23:58:31.608Z,53.80
